Joliet, IL

12:55 AM CST on February 09, 2016 (GMT -0600)
Warwick Subdivision, Joliet, IL | | Change Station
CLOSE
Current Station
Personal Weather Station
Location: Joliet, IL
Elevation: 591 ft
Nearby Weather Stations
Active Advisory: Special Statement Active Notice: Local Storm Report

Elev 591 ft 41.55 °N, 88.15 °W | Updated 4 minutes ago

Overcast
Overcast
21.7 °F
Feels Like 13 °F
N
7.0
Wind Variable Wind from West
Gusts 10.0 mph

Today
High -- | Low -- °F
--% Chance of Precip.
Yesterday
High -- | Low -- °F
Precip. -- in
Pressure 29.76 in
Visibility 10.0 miles
Clouds Scattered Clouds 2500 ft
Overcast 3900 ft
Windchill 13 °F
Dew Point 16 °F
Humidity 77%
Rainfall 0.00 in
Snow Depth Not available.
6:56 AM 5:18 PM
New Moon, 1% visible
METAR KJOT 090635Z AUTO 30008KT 10SM SCT025 OVC039 M04/M09 A2976 RMK AO2 T10451086
Pressure 29.76 in
Visibility 10.0 miles
Clouds Scattered Clouds 2500 ft
Overcast 3900 ft
Windchill 13 °F
Dew Point 16 °F
Humidity 77%
Rainfall 0.00 in
Snow Depth Not available.
6:56 AM 5:18 PM
New Moon, 1% visible
METAR KJOT 090635Z AUTO 30008KT 10SM SCT025 OVC039 M04/M09 A2976 RMK AO2 T10451086

10-Day Weather Forecast

Almanac

Astronomy

Feb. 09, 2016 Rise Set
Actual Time
Civil Twilight
Nautical Twilight
Astronomical Twilight
Moon
Length of Visible Light
Length of Day
Tomorrow will be .
, % of the Moon is Illuminated

Today's Extremes

State Highs State Lows

Community

WunderPhotos

Upload Photos

1,891,571 photos uploaded!

WunderBlog® & News

Nearby

Air Quality

  Air Quality AQ Index Pollutant
Not available.

Snow Depth

Station Depth Elevation

Earthquake Activity

City Distance Mag. Time & Date
Minimum magnitude displayed is 2.5.

Coastal Water Temperatures

Place Temperature

Stations

Nearby Weather Stations

Station Location Temp. Windchill Dew Point Humidity Wind Precip. Elev Updated Type
                   

Watches & Warnings

Special Statement
Issued: 4:07 PM EST Feb. 8, 2016 – National Weather Service

... Light snow likely tonight into early Tuesday...

Light snow is likely tonight into Tuesday morning with some minor
accumulations of an inch or so possible. Light snow will likely
have an adverse impact on the Tuesday morning rush hour.


307 PM CST Mon Feb 8 2016 /407 PM EST Mon Feb 8 2016/

... Light snow likely tonight into early Tuesday...

Light snow is likely tonight into Tuesday morning with some minor
accumulations of an inch or so possible. Light snow will likely
have an adverse impact on the Tuesday morning rush hour.